sensor_id;sensor_type;location;lat;lon;timestamp;pressure;altitude;pressure_sealevel;temperature;humidity
9695;BME280;4690;52.422;13.486;2022-12-16T00:04:23;100883.00;;;-5.59;76.14
9695;BME280;4690;52.422;13.486;2022-12-16T00:06:49;100882.03;;;-5.58;76.54
9695;BME280;4690;52.422;13.486;2022-12-16T00:09:15;100887.50;;;-5.60;76.38
9695;BME280;4690;52.422;13.486;2022-12-16T00:11:40;100891.34;;;-5.64;75.90
9695;BME280;4690;52.422;13.486;2022-12-16T00:14:06;100892.09;;;-5.62;76.20
9695;BME280;4690;52.422;13.486;2022-12-16T00:16:32;100895.59;;;-5.61;76.26
9695;BME280;4690;52.422;13.486;2022-12-16T00:18:58;100904.47;;;-5.61;76.25
9695;BME280;4690;52.422;13.486;2022-12-16T00:21:23;100910.66;;;-5.60;76.23
9695;BME280;4690;52.422;13.486;2022-12-16T00:23:55;100921.31;;;-5.60;76.13
9695;BME280;4690;52.422;13.486;2022-12-16T00:26:21;100908.22;;;-5.64;76.03
9695;BME280;4690;52.422;13.486;2022-12-16T00:28:47;100921.78;;;-5.67;76.17
9695;BME280;4690;52.422;13.486;2022-12-16T00:31:13;100915.75;;;-5.69;75.80
9695;BME280;4690;52.422;13.486;2022-12-16T00:33:39;100914.16;;;-5.71;76.04
9695;BME280;4690;52.422;13.486;2022-12-16T00:36:06;100921.19;;;-5.70;75.68
9695;BME280;4690;52.422;13.486;2022-12-16T00:38:33;100917.19;;;-5.76;75.40
9695;BME280;4690;52.422;13.486;2022-12-16T00:40:59;100914.59;;;-5.77;75.34
9695;BME280;4690;52.422;13.486;2022-12-16T00:43:25;100911.22;;;-5.79;75.12
9695;BME280;4690;52.422;13.486;2022-12-16T00:45:51;100920.19;;;-5.80;75.06
9695;BME280;4690;52.422;13.486;2022-12-16T00:48:18;100911.47;;;-5.82;74.74
9695;BME280;4690;52.422;13.486;2022-12-16T00:50:49;100915.81;;;-5.81;74.75
9695;BME280;4690;52.422;13.486;2022-12-16T00:53:15;100911.56;;;-5.84;74.83
9695;BME280;4690;52.422;13.486;2022-12-16T00:55:41;100927.72;;;-5.86;74.61
9695;BME280;4690;52.422;13.486;2022-12-16T00:58:07;100908.06;;;-5.84;74.70
9695;BME280;4690;52.422;13.486;2022-12-16T01:00:34;100905.50;;;-5.86;74.54
9695;BME280;4690;52.422;13.486;2022-12-16T01:02:59;100897.72;;;-5.89;75.00
9695;BME280;4690;52.422;13.486;2022-12-16T01:05:26;100902.97;;;-5.88;75.09
9695;BME280;4690;52.422;13.486;2022-12-16T01:07:55;100904.78;;;-5.88;75.17
9695;BME280;4690;52.422;13.486;2022-12-16T01:10:23;100910.22;;;-5.90;75.23
9695;BME280;4690;52.422;13.486;2022-12-16T01:12:50;100915.56;;;-5.90;75.09
9695;BME280;4690;52.422;13.486;2022-12-16T01:15:17;100923.56;;;-5.90;75.26
9695;BME280;4690;52.422;13.486;2022-12-16T01:17:43;100918.34;;;-5.91;75.18
9695;BME280;4690;52.422;13.486;2022-12-16T01:20:10;100919.19;;;-5.91;75.12
9695;BME280;4690;52.422;13.486;2022-12-16T01:22:37;100917.38;;;-5.90;75.22
9695;BME280;4690;52.422;13.486;2022-12-16T01:25:03;100917.16;;;-5.87;74.78
9695;BME280;4690;52.422;13.486;2022-12-16T01:27:29;100918.22;;;-5.90;74.67
9695;BME280;4690;52.422;13.486;2022-12-16T01:29:55;100919.31;;;-5.92;74.58
9695;BME280;4690;52.422;13.486;2022-12-16T01:32:21;100914.97;;;-5.93;74.52
9695;BME280;4690;52.422;13.486;2022-12-16T01:34:53;100916.06;;;-5.96;75.22
9695;BME280;4690;52.422;13.486;2022-12-16T01:37:19;100923.22;;;-5.96;74.97
9695;BME280;4690;52.422;13.486;2022-12-16T01:39:46;100916.28;;;-5.99;74.92
9695;BME280;4690;52.422;13.486;2022-12-16T01:42:15;100928.56;;;-5.96;75.34
9695;BME280;4690;52.422;13.486;2022-12-16T01:44:47;100923.22;;;-5.96;75.16
9695;BME280;4690;52.422;13.486;2022-12-16T01:47:25;100917.13;;;-5.98;75.35
9695;BME280;4690;52.422;13.486;2022-12-16T01:50:04;100922.47;;;-5.98;75.48
9695;BME280;4690;52.422;13.486;2022-12-16T01:52:40;100919.56;;;-5.95;75.62
9695;BME280;4690;52.422;13.486;2022-12-16T01:55:34;100918.22;;;-6.01;75.59
9695;BME280;4690;52.422;13.486;2022-12-16T01:58:12;100927.19;;;-6.02;75.66
9695;BME280;4690;52.422;13.486;2022-12-16T02:00:40;100924.53;;;-6.02;75.49
9695;BME280;4690;52.422;13.486;2022-12-16T02:03:08;100915.88;;;-6.05;75.93
9695;BME280;4690;52.422;13.486;2022-12-16T02:05:38;100922.44;;;-6.10;75.47
9695;BME280;4690;52.422;13.486;2022-12-16T02:16:18;100911.44;;;-6.05;75.82
9695;BME280;4690;52.422;13.486;2022-12-16T02:18:57;100911.28;;;-6.03;75.89
9695;BME280;4690;52.422;13.486;2022-12-16T02:36:20;100902.50;;;-6.17;75.55
9695;BME280;4690;52.422;13.486;2022-12-16T02:39:00;100907.22;;;-6.20;75.80
9695;BME280;4690;52.422;13.486;2022-12-16T02:42:01;100903.72;;;-6.21;75.94
9695;BME280;4690;52.422;13.486;2022-12-16T02:47:14;100901.66;;;-6.17;75.66
9695;BME280;4690;52.422;13.486;2022-12-16T02:49:50;100899.97;;;-6.18;75.35
9695;BME280;4690;52.422;13.486;2022-12-16T02:52:28;100904.47;;;-6.19;75.34
9695;BME280;4690;52.422;13.486;2022-12-16T02:55:03;100912.66;;;-6.33;75.58
9695;BME280;4690;52.422;13.486;2022-12-16T03:00:23;100899.69;;;-6.26;75.72
9695;BME280;4690;52.422;13.486;2022-12-16T03:03:12;100892.53;;;-6.26;75.46
9695;BME280;4690;52.422;13.486;2022-12-16T03:05:49;100891.78;;;-6.28;75.97
9695;BME280;4690;52.422;13.486;2022-12-16T03:08:31;100889.25;;;-6.29;75.74
9695;BME280;4690;52.422;13.486;2022-12-16T03:11:05;100890.94;;;-6.28;75.91
9695;BME280;4690;52.422;13.486;2022-12-16T03:13:46;100884.03;;;-6.31;75.78
9695;BME280;4690;52.422;13.486;2022-12-16T03:16:17;100896.50;;;-6.32;76.44
9695;BME280;4690;52.422;13.486;2022-12-16T03:18:51;100890.25;;;-6.30;75.83
9695;BME280;4690;52.422;13.486;2022-12-16T03:21:20;100886.59;;;-6.29;76.07
9695;BME280;4690;52.422;13.486;2022-12-16T03:23:54;100888.28;;;-6.28;75.87
9695;BME280;4690;52.422;13.486;2022-12-16T03:26:50;100885.84;;;-6.32;75.81
9695;BME280;4690;52.422;13.486;2022-12-16T03:31:59;100887.78;;;-6.34;75.56
9695;BME280;4690;52.422;13.486;2022-12-16T03:34:58;100878.94;;;-6.34;75.76
9695;BME280;4690;52.422;13.486;2022-12-16T03:37:30;100871.69;;;-6.32;75.63
9695;BME280;4690;52.422;13.486;2022-12-16T03:40:03;100881.59;;;-6.34;75.38
9695;BME280;4690;52.422;13.486;2022-12-16T03:42:30;100870.94;;;-6.34;76.11
9695;BME280;4690;52.422;13.486;2022-12-16T03:44:57;100870.00;;;-6.33;75.51
9695;BME280;4690;52.422;13.486;2022-12-16T03:47:27;100870.94;;;-6.34;75.72
9695;BME280;4690;52.422;13.486;2022-12-16T03:49:54;100869.84;;;-6.32;75.48
9695;BME280;4690;52.422;13.486;2022-12-16T03:52:19;100868.16;;;-6.33;75.60
9695;BME280;4690;52.422;13.486;2022-12-16T03:54:45;100865.50;;;-6.33;75.24
9695;BME280;4690;52.422;13.486;2022-12-16T03:57:11;100868.28;;;-6.34;75.23
9695;BME280;4690;52.422;13.486;2022-12-16T03:59:37;100878.00;;;-6.33;75.40
9695;BME280;4690;52.422;13.486;2022-12-16T04:02:03;100889.50;;;-6.33;75.53
9695;BME280;4690;52.422;13.486;2022-12-16T04:04:29;100894.31;;;-6.38;75.03
9695;BME280;4690;52.422;13.486;2022-12-16T04:06:55;100882.38;;;-6.45;75.75
9695;BME280;4690;52.422;13.486;2022-12-16T04:09:39;100882.75;;;-6.49;75.65
9695;BME280;4690;52.422;13.486;2022-12-16T04:12:07;100882.38;;;-6.45;75.97
9695;BME280;4690;52.422;13.486;2022-12-16T04:14:52;100889.31;;;-6.42;76.09
9695;BME280;4690;52.422;13.486;2022-12-16T04:17:37;100886.88;;;-6.45;75.67
9695;BME280;4690;52.422;13.486;2022-12-16T04:20:29;100898.06;;;-6.40;75.88
9695;BME280;4690;52.422;13.486;2022-12-16T04:23:14;100896.59;;;-6.44;75.76
9695;BME280;4690;52.422;13.486;2022-12-16T04:25:59;100898.75;;;-6.49;75.84
9695;BME280;4690;52.422;13.486;2022-12-16T04:28:25;100901.50;;;-6.51;75.61
9695;BME280;4690;52.422;13.486;2022-12-16T04:30:51;100899.59;;;-6.49;75.56
9695;BME280;4690;52.422;13.486;2022-12-16T04:33:17;100898.97;;;-6.52;75.21
9695;BME280;4690;52.422;13.486;2022-12-16T04:36:01;100907.81;;;-6.52;75.36
9695;BME280;4690;52.422;13.486;2022-12-16T04:38:45;100912.31;;;-6.52;75.44
9695;BME280;4690;52.422;13.486;2022-12-16T04:41:29;100917.97;;;-6.57;75.25
9695;BME280;4690;52.422;13.486;2022-12-16T04:44:13;100908.88;;;-6.55;75.42
9695;BME280;4690;52.422;13.486;2022-12-16T04:46:58;100905.38;;;-6.55;74.76
9695;BME280;4690;52.422;13.486;2022-12-16T04:49:42;100903.47;;;-6.53;75.28
9695;BME280;4690;52.422;13.486;2022-12-16T04:52:26;100905.59;;;-6.58;75.30
9695;BME280;4690;52.422;13.486;2022-12-16T04:55:11;100909.97;;;-6.57;74.98
9695;BME280;4690;52.422;13.486;2022-12-16T04:58:00;100916.13;;;-6.57;74.99
9695;BME280;4690;52.422;13.486;2022-12-16T05:00:46;100917.97;;;-6.57;75.05
9695;BME280;4690;52.422;13.486;2022-12-16T05:03:32;100914.53;;;-6.59;74.88
9695;BME280;4690;52.422;13.486;2022-12-16T05:06:17;100913.19;;;-6.65;75.41
9695;BME280;4690;52.422;13.486;2022-12-16T05:09:02;100915.75;;;-6.63;74.98
9695;BME280;4690;52.422;13.486;2022-12-16T05:11:47;100918.72;;;-6.68;75.19
9695;BME280;4690;52.422;13.486;2022-12-16T05:14:31;100920.31;;;-6.65;74.98
9695;BME280;4690;52.422;13.486;2022-12-16T05:17:16;100915.00;;;-6.65;75.10
9695;BME280;4690;52.422;13.486;2022-12-16T05:20:00;100914.06;;;-6.64;75.31
9695;BME280;4690;52.422;13.486;2022-12-16T05:22:45;100918.41;;;-6.63;75.30
9695;BME280;4690;52.422;13.486;2022-12-16T05:25:30;100916.59;;;-6.63;75.06
9695;BME280;4690;52.422;13.486;2022-12-16T05:28:14;100915.84;;;-6.65;75.12
9695;BME280;4690;52.422;13.486;2022-12-16T05:30:58;100919.47;;;-6.66;75.77
9695;BME280;4690;52.422;13.486;2022-12-16T05:33:43;100919.38;;;-6.64;75.24
9695;BME280;4690;52.422;13.486;2022-12-16T05:36:27;100930.75;;;-6.62;75.21
9695;BME280;4690;52.422;13.486;2022-12-16T05:39:12;100929.06;;;-6.63;75.44
9695;BME280;4690;52.422;13.486;2022-12-16T05:41:57;100924.34;;;-6.60;75.44
9695;BME280;4690;52.422;13.486;2022-12-16T05:44:41;100925.56;;;-6.64;75.48
9695;BME280;4690;52.422;13.486;2022-12-16T05:47:26;100929.69;;;-6.60;75.19
9695;BME280;4690;52.422;13.486;2022-12-16T05:50:11;100934.06;;;-6.59;75.95
9695;BME280;4690;52.422;13.486;2022-12-16T05:52:56;100935.78;;;-6.58;75.80
9695;BME280;4690;52.422;13.486;2022-12-16T05:55:42;100939.28;;;-6.57;75.83
9695;BME280;4690;52.422;13.486;2022-12-16T05:58:28;100941.84;;;-6.56;75.42
9695;BME280;4690;52.422;13.486;2022-12-16T06:01:12;100940.25;;;-6.58;75.41
9695;BME280;4690;52.422;13.486;2022-12-16T06:03:58;100947.19;;;-6.56;75.89
9695;BME280;4690;52.422;13.486;2022-12-16T06:06:42;100959.53;;;-6.55;75.60
9695;BME280;4690;52.422;13.486;2022-12-16T06:09:27;100966.06;;;-6.59;75.53
9695;BME280;4690;52.422;13.486;2022-12-16T06:12:11;100972.09;;;-6.57;75.96
9695;BME280;4690;52.422;13.486;2022-12-16T06:14:55;100975.84;;;-6.59;76.18
9695;BME280;4690;52.422;13.486;2022-12-16T06:17:48;100977.78;;;-6.61;75.98
9695;BME280;4690;52.422;13.486;2022-12-16T06:20:46;100984.91;;;-6.62;75.80
9695;BME280;4690;52.422;13.486;2022-12-16T06:23:31;100991.72;;;-6.58;75.73
9695;BME280;4690;52.422;13.486;2022-12-16T06:26:15;101002.16;;;-6.55;75.96
9695;BME280;4690;52.422;13.486;2022-12-16T06:28:59;101005.81;;;-6.56;75.94
9695;BME280;4690;52.422;13.486;2022-12-16T06:31:43;101005.06;;;-6.58;76.06
9695;BME280;4690;52.422;13.486;2022-12-16T06:34:28;101010.38;;;-6.58;76.01
9695;BME280;4690;52.422;13.486;2022-12-16T06:37:12;101006.75;;;-6.57;75.78
9695;BME280;4690;52.422;13.486;2022-12-16T06:39:57;101013.06;;;-6.58;75.89
9695;BME280;4690;52.422;13.486;2022-12-16T06:42:41;101014.75;;;-6.57;75.52
9695;BME280;4690;52.422;13.486;2022-12-16T06:45:26;101024.56;;;-6.57;75.93
9695;BME280;4690;52.422;13.486;2022-12-16T06:48:10;101022.75;;;-6.57;75.40
9695;BME280;4690;52.422;13.486;2022-12-16T06:50:55;101029.81;;;-6.56;76.14
9695;BME280;4690;52.422;13.486;2022-12-16T06:53:39;101029.81;;;-6.56;76.21
9695;BME280;4690;52.422;13.486;2022-12-16T06:56:24;101036.06;;;-6.57;75.65
9695;BME280;4690;52.422;13.486;2022-12-16T06:59:08;101035.13;;;-6.56;76.07
9695;BME280;4690;52.422;13.486;2022-12-16T07:01:52;101035.84;;;-6.54;75.68
9695;BME280;4690;52.422;13.486;2022-12-16T07:04:36;101044.38;;;-6.48;75.88
9695;BME280;4690;52.422;13.486;2022-12-16T07:07:20;101040.75;;;-6.47;75.61
9695;BME280;4690;52.422;13.486;2022-12-16T07:10:05;101042.47;;;-6.46;75.89
9695;BME280;4690;52.422;13.486;2022-12-16T07:12:49;101051.22;;;-6.44;75.75
9695;BME280;4690;52.422;13.486;2022-12-16T07:15:33;101060.81;;;-6.42;75.99
9695;BME280;4690;52.422;13.486;2022-12-16T07:18:17;101062.38;;;-6.39;76.11
9695;BME280;4690;52.422;13.486;2022-12-16T07:21:02;101075.50;;;-6.36;75.44
9695;BME280;4690;52.422;13.486;2022-12-16T07:23:46;101078.66;;;-6.31;75.79
9695;BME280;4690;52.422;13.486;2022-12-16T07:26:30;101078.56;;;-6.29;75.55
9695;BME280;4690;52.422;13.486;2022-12-16T07:29:14;101082.00;;;-6.27;75.80
9695;BME280;4690;52.422;13.486;2022-12-16T07:31:58;101082.63;;;-6.24;75.86
9695;BME280;4690;52.422;13.486;2022-12-16T07:34:42;101092.97;;;-6.19;75.73
9695;BME280;4690;52.422;13.486;2022-12-16T07:37:27;101105.94;;;-6.15;76.00
9695;BME280;4690;52.422;13.486;2022-12-16T07:40:11;101111.06;;;-6.12;75.79
9695;BME280;4690;52.422;13.486;2022-12-16T07:42:55;101123.31;;;-6.09;75.74
9695;BME280;4690;52.422;13.486;2022-12-16T07:45:39;101122.38;;;-6.08;75.75
9695;BME280;4690;52.422;13.486;2022-12-16T07:48:23;101127.28;;;-6.02;75.73
9695;BME280;4690;52.422;13.486;2022-12-16T07:51:08;101118.69;;;-5.94;75.67
9695;BME280;4690;52.422;13.486;2022-12-16T07:53:52;101126.47;;;-5.91;75.82
9695;BME280;4690;52.422;13.486;2022-12-16T07:56:36;101130.38;;;-5.84;75.64
9695;BME280;4690;52.422;13.486;2022-12-16T07:59:20;101130.16;;;-5.81;75.76
9695;BME280;4690;52.422;13.486;2022-12-16T08:02:04;101128.63;;;-5.72;75.69
9695;BME280;4690;52.422;13.486;2022-12-16T08:04:49;101137.06;;;-5.66;75.77
9695;BME280;4690;52.422;13.486;2022-12-16T08:07:33;101142.25;;;-5.64;75.38
9695;BME280;4690;52.422;13.486;2022-12-16T08:10:17;101144.59;;;-5.59;75.69
9695;BME280;4690;52.422;13.486;2022-12-16T08:13:03;101151.19;;;-5.52;75.63
9695;BME280;4690;52.422;13.486;2022-12-16T08:15:48;101159.84;;;-5.49;75.70
9695;BME280;4690;52.422;13.486;2022-12-16T08:18:33;101155.88;;;-5.43;75.65
9695;BME280;4690;52.422;13.486;2022-12-16T08:21:17;101156.34;;;-5.38;75.66
9695;BME280;4690;52.422;13.486;2022-12-16T08:24:02;101167.16;;;-5.39;76.07
9695;BME280;4690;52.422;13.486;2022-12-16T08:26:47;101166.38;;;-5.29;76.19
9695;BME280;4690;52.422;13.486;2022-12-16T08:29:31;101165.53;;;-5.18;76.27
9695;BME280;4690;52.422;13.486;2022-12-16T08:32:16;101162.81;;;-5.05;76.13
9695;BME280;4690;52.422;13.486;2022-12-16T08:35:00;101158.81;;;-5.00;76.17
9695;BME280;4690;52.422;13.486;2022-12-16T08:37:46;101163.47;;;-4.90;76.14
9695;BME280;4690;52.422;13.486;2022-12-16T08:40:31;101164.09;;;-4.87;76.32
9695;BME280;4690;52.422;13.486;2022-12-16T08:43:15;101164.81;;;-4.85;76.03
9695;BME280;4690;52.422;13.486;2022-12-16T08:46:00;101171.19;;;-4.75;76.07
9695;BME280;4690;52.422;13.486;2022-12-16T08:48:45;101168.13;;;-4.81;76.29
9695;BME280;4690;52.422;13.486;2022-12-16T08:51:30;101170.44;;;-4.77;75.92
9695;BME280;4690;52.422;13.486;2022-12-16T08:54:14;101167.88;;;-4.89;76.13
9695;BME280;4690;52.422;13.486;2022-12-16T08:56:59;101170.81;;;-4.81;76.62
9695;BME280;4690;52.422;13.486;2022-12-16T08:59:44;101180.66;;;-4.70;76.36
9695;BME280;4690;52.422;13.486;2022-12-16T09:02:28;101175.88;;;-4.89;76.59
9695;BME280;4690;52.422;13.486;2022-12-16T09:05:12;101171.16;;;-4.86;76.97
9695;BME280;4690;52.422;13.486;2022-12-16T09:08:00;101174.94;;;-4.77;77.11
9695;BME280;4690;52.422;13.486;2022-12-16T09:10:45;101178.22;;;-4.74;76.96
9695;BME280;4690;52.422;13.486;2022-12-16T09:13:29;101187.97;;;-4.72;77.05
9695;BME280;4690;52.422;13.486;2022-12-16T09:16:13;101186.00;;;-4.70;77.30
9695;BME280;4690;52.422;13.486;2022-12-16T09:18:58;101186.91;;;-4.59;77.32
9695;BME280;4690;52.422;13.486;2022-12-16T09:21:42;101184.22;;;-4.59;77.53
9695;BME280;4690;52.422;13.486;2022-12-16T09:24:26;101187.63;;;-4.45;77.07
9695;BME280;4690;52.422;13.486;2022-12-16T09:27:10;101188.41;;;-4.32;77.63
9695;BME280;4690;52.422;13.486;2022-12-16T09:29:54;101197.28;;;-4.32;77.67
9695;BME280;4690;52.422;13.486;2022-12-16T09:32:43;101186.34;;;-4.17;77.36
9695;BME280;4690;52.422;13.486;2022-12-16T09:35:28;101198.03;;;-4.07;78.19
9695;BME280;4690;52.422;13.486;2022-12-16T09:38:13;101193.53;;;-4.07;78.36
9695;BME280;4690;52.422;13.486;2022-12-16T09:41:22;101193.16;;;-3.79;78.87
9695;BME280;4690;52.422;13.486;2022-12-16T09:44:59;101193.94;;;-3.34;78.50
9695;BME280;4690;52.422;13.486;2022-12-16T09:50:41;101188.47;;;-2.79;76.65
9695;BME280;4690;52.422;13.486;2022-12-16T09:53:33;101190.00;;;-2.86;75.32
9695;BME280;4690;52.422;13.486;2022-12-16T09:56:30;101185.09;;;-2.81;74.82
9695;BME280;4690;52.422;13.486;2022-12-16T09:59:23;101193.25;;;-2.83;75.05
9695;BME280;4690;52.422;13.486;2022-12-16T10:02:12;101183.00;;;-2.57;75.03
9695;BME280;4690;52.422;13.486;2022-12-16T10:04:57;101181.50;;;-2.50;73.97
9695;BME280;4690;52.422;13.486;2022-12-16T10:08:17;101187.03;;;-2.20;74.30
9695;BME280;4690;52.422;13.486;2022-12-16T10:11:11;101187.44;;;-1.94;73.00
9695;BME280;4690;52.422;13.486;2022-12-16T10:14:13;101182.28;;;-1.76;72.68
9695;BME280;4690;52.422;13.486;2022-12-16T10:17:21;101181.75;;;-1.70;72.16
9695;BME280;4690;52.422;13.486;2022-12-16T10:20:35;101180.34;;;-1.55;72.32
9695;BME280;4690;52.422;13.486;2022-12-16T10:23:42;101171.06;;;-1.41;71.92
9695;BME280;4690;52.422;13.486;2022-12-16T10:29:40;101164.44;;;-1.08;71.18
9695;BME280;4690;52.422;13.486;2022-12-16T10:32:37;101168.72;;;-0.96;71.05
9695;BME280;4690;52.422;13.486;2022-12-16T10:35:31;101173.50;;;-0.80;70.74
9695;BME280;4690;52.422;13.486;2022-12-16T10:38:37;101168.81;;;-0.58;70.91
9695;BME280;4690;52.422;13.486;2022-12-16T10:41:30;101176.88;;;-0.39;70.24
9695;BME280;4690;52.422;13.486;2022-12-16T10:44:30;101177.13;;;-0.22;69.80
9695;BME280;4690;52.422;13.486;2022-12-16T10:47:16;101178.03;;;-0.04;69.55
9695;BME280;4690;52.422;13.486;2022-12-16T10:50:01;101181.94;;;0.11;68.67
9695;BME280;4690;52.422;13.486;2022-12-16T10:53:17;101178.78;;;0.26;68.24
9695;BME280;4690;52.422;13.486;2022-12-16T10:59:07;101192.88;;;0.10;66.49
9695;BME280;4690;52.422;13.486;2022-12-16T11:02:19;101187.41;;;0.29;67.32
9695;BME280;4690;52.422;13.486;2022-12-16T11:08:38;101184.72;;;0.57;66.32
9695;BME280;4690;52.422;13.486;2022-12-16T11:11:29;101175.72;;;0.66;66.14
9695;BME280;4690;52.422;13.486;2022-12-16T11:14:24;101192.59;;;0.68;66.84
9695;BME280;4690;52.422;13.486;2022-12-16T11:17:29;101179.75;;;0.98;66.64
9695;BME280;4690;52.422;13.486;2022-12-16T11:20:20;101192.78;;;1.20;65.87
9695;BME280;4690;52.422;13.486;2022-12-16T11:23:24;101187.22;;;1.40;66.31
9695;BME280;4690;52.422;13.486;2022-12-16T11:26:16;101184.59;;;1.74;64.99
9695;BME280;4690;52.422;13.486;2022-12-16T11:29:17;101186.09;;;1.94;63.53
9695;BME280;4690;52.422;13.486;2022-12-16T11:32:26;101186.47;;;2.08;63.31
9695;BME280;4690;52.422;13.486;2022-12-16T11:35:23;101188.41;;;2.15;62.24
9695;BME280;4690;52.422;13.486;2022-12-16T11:38:23;101198.22;;;1.90;62.26
9695;BME280;4690;52.422;13.486;2022-12-16T11:41:21;101204.91;;;1.78;64.27
9695;BME280;4690;52.422;13.486;2022-12-16T11:44:24;101203.78;;;1.89;63.98
9695;BME280;4690;52.422;13.486;2022-12-16T11:50:20;101201.72;;;2.09;63.72
9695;BME280;4690;52.422;13.486;2022-12-16T11:56:14;101201.84;;;2.41;62.86
9695;BME280;4690;52.422;13.486;2022-12-16T11:59:22;101199.16;;;2.41;63.04
9695;BME280;4690;52.422;13.486;2022-12-16T12:02:41;101197.94;;;2.78;62.32
9695;BME280;4690;52.422;13.486;2022-12-16T12:05:48;101189.19;;;3.01;61.93
9695;BME280;4690;52.422;13.486;2022-12-16T12:12:03;101207.16;;;3.18;60.60
9695;BME280;4690;52.422;13.486;2022-12-16T12:18:47;101207.47;;;2.90;60.18
9695;BME280;4690;52.422;13.486;2022-12-16T12:21:26;101211.50;;;2.95;59.99
9695;BME280;4690;52.422;13.486;2022-12-16T12:24:42;101206.28;;;3.09;61.03
9695;BME280;4690;52.422;13.486;2022-12-16T12:27:50;101211.75;;;3.26;60.11
9695;BME280;4690;52.422;13.486;2022-12-16T12:30:58;101218.53;;;3.30;59.94
9695;BME280;4690;52.422;13.486;2022-12-16T12:34:18;101233.19;;;3.03;60.86
9695;BME280;4690;52.422;13.486;2022-12-16T12:37:47;101235.19;;;2.92;61.54
9695;BME280;4690;52.422;13.486;2022-12-16T12:44:34;101234.34;;;2.15;64.08
9695;BME280;4690;52.422;13.486;2022-12-16T12:47:27;101225.63;;;1.95;65.31
9695;BME280;4690;52.422;13.486;2022-12-16T12:50:29;101236.56;;;1.94;65.60
9695;BME280;4690;52.422;13.486;2022-12-16T12:53:37;101241.63;;;1.71;66.27
9695;BME280;4690;52.422;13.486;2022-12-16T12:56:51;101241.63;;;1.71;67.29
9695;BME280;4690;52.422;13.486;2022-12-16T13:00:03;101242.41;;;1.81;67.37
9695;BME280;4690;52.422;13.486;2022-12-16T13:06:02;101250.38;;;1.29;68.74
9695;BME280;4690;52.422;13.486;2022-12-16T13:11:35;101256.56;;;1.39;69.42
9695;BME280;4690;52.422;13.486;2022-12-16T13:17:22;101263.50;;;1.60;68.79
9695;BME280;4690;52.422;13.486;2022-12-16T13:20:35;101260.09;;;1.57;68.63
9695;BME280;4690;52.422;13.486;2022-12-16T13:23:29;101263.44;;;1.69;68.28
9695;BME280;4690;52.422;13.486;2022-12-16T13:26:17;101272.06;;;1.73;68.09
9695;BME280;4690;52.422;13.486;2022-12-16T13:32:26;101268.66;;;1.71;68.71
9695;BME280;4690;52.422;13.486;2022-12-16T13:38:20;101287.06;;;1.49;68.65
9695;BME280;4690;52.422;13.486;2022-12-16T13:44:11;101298.22;;;1.19;69.93
9695;BME280;4690;52.422;13.486;2022-12-16T13:46:57;101297.50;;;1.17;70.25
9695;BME280;4690;52.422;13.486;2022-12-16T13:49:50;101302.19;;;1.15;71.27
9695;BME280;4690;52.422;13.486;2022-12-16T13:52:53;101307.28;;;1.18;70.58
9695;BME280;4690;52.422;13.486;2022-12-16T13:55:56;101307.69;;;1.23;70.49
9695;BME280;4690;52.422;13.486;2022-12-16T13:58:49;101313.19;;;1.31;70.77
9695;BME280;4690;52.422;13.486;2022-12-16T14:04:36;101322.19;;;1.22;70.97
9695;BME280;4690;52.422;13.486;2022-12-16T14:07:24;101320.25;;;1.14;71.67
9695;BME280;4690;52.422;13.486;2022-12-16T14:10:35;101331.69;;;0.98;71.18
9695;BME280;4690;52.422;13.486;2022-12-16T14:17:01;101326.59;;;0.95;71.43
9695;BME280;4690;52.422;13.486;2022-12-16T14:20:21;101331.69;;;0.98;71.75
9695;BME280;4690;52.422;13.486;2022-12-16T14:26:14;101332.84;;;0.96;72.38
9695;BME280;4690;52.422;13.486;2022-12-16T14:29:01;101344.34;;;0.98;71.64
9695;BME280;4690;52.422;13.486;2022-12-16T14:31:49;101348.75;;;0.99;71.98
9695;BME280;4690;52.422;13.486;2022-12-16T14:34:35;101348.19;;;0.95;72.58
9695;BME280;4690;52.422;13.486;2022-12-16T14:37:34;101351.66;;;0.87;72.15
9695;BME280;4690;52.422;13.486;2022-12-16T14:40:27;101361.44;;;0.88;72.46
9695;BME280;4690;52.422;13.486;2022-12-16T14:43:23;101360.59;;;0.88;72.42
9695;BME280;4690;52.422;13.486;2022-12-16T14:46:28;101359.03;;;0.85;71.90
9695;BME280;4690;52.422;13.486;2022-12-16T14:49:26;101361.56;;;0.87;72.08
9695;BME280;4690;52.422;13.486;2022-12-16T14:52:24;101361.72;;;0.85;72.08
9695;BME280;4690;52.422;13.486;2022-12-16T14:58:19;101375.50;;;0.82;72.55
9695;BME280;4690;52.422;13.486;2022-12-16T15:01:20;101381.03;;;0.81;73.12
9695;BME280;4690;52.422;13.486;2022-12-16T15:04:13;101389.78;;;0.65;73.10
9695;BME280;4690;52.422;13.486;2022-12-16T15:07:00;101383.63;;;0.73;72.82
9695;BME280;4690;52.422;13.486;2022-12-16T15:09:51;101385.66;;;0.61;72.96
9695;BME280;4690;52.422;13.486;2022-12-16T15:12:41;101390.50;;;0.57;73.29
9695;BME280;4690;52.422;13.486;2022-12-16T15:15:44;101394.50;;;0.43;73.44
9695;BME280;4690;52.422;13.486;2022-12-16T15:18:43;101399.88;;;0.43;74.10
9695;BME280;4690;52.422;13.486;2022-12-16T15:21:33;101402.28;;;0.47;73.98
9695;BME280;4690;52.422;13.486;2022-12-16T15:24:22;101404.59;;;0.32;73.54
9695;BME280;4690;52.422;13.486;2022-12-16T15:27:26;101404.72;;;0.30;73.89
9695;BME280;4690;52.422;13.486;2022-12-16T15:33:25;101416.19;;;0.42;73.94
9695;BME280;4690;52.422;13.486;2022-12-16T15:36:33;101420.75;;;0.32;73.97
9695;BME280;4690;52.422;13.486;2022-12-16T15:39:23;101426.16;;;0.32;74.31
9695;BME280;4690;52.422;13.486;2022-12-16T15:42:27;101433.81;;;0.17;74.38
9695;BME280;4690;52.422;13.486;2022-12-16T15:45:23;101435.94;;;0.13;74.87
9695;BME280;4690;52.422;13.486;2022-12-16T15:48:31;101430.69;;;0.21;74.67
9695;BME280;4690;52.422;13.486;2022-12-16T15:51:29;101435.66;;;0.26;74.19
9695;BME280;4690;52.422;13.486;2022-12-16T15:54:20;101437.78;;;0.22;74.80
9695;BME280;4690;52.422;13.486;2022-12-16T15:57:28;101440.22;;;0.26;74.65
9695;BME280;4690;52.422;13.486;2022-12-16T16:00:24;101448.41;;;0.34;74.58
9695;BME280;4690;52.422;13.486;2022-12-16T16:03:29;101456.25;;;0.37;73.50
9695;BME280;4690;52.422;13.486;2022-12-16T16:06:25;101448.97;;;0.47;74.09
9695;BME280;4690;52.422;13.486;2022-12-16T16:09:32;101451.81;;;0.46;73.66
9695;BME280;4690;52.422;13.486;2022-12-16T16:12:19;101451.97;;;0.44;73.31
9695;BME280;4690;52.422;13.486;2022-12-16T16:15:07;101466.72;;;0.40;73.86
9695;BME280;4690;52.422;13.486;2022-12-16T16:18:03;101466.44;;;0.43;73.00